Weather at Zadar Airport

Public forecast

Using degrees Celsius for public forecast. Weather courtesy of forecast.io.

Current aviation weather report (METAR) for Zadar Airport

2022/12/03 14:30 (retrieved 39 minutes ago)

LDZD 031430Z 11011KT 080V140 9999 -RA VCTS SCT020 FEW025CB BKN033 12/12 Q1016 TEMPO TSRA

Aviation forecast (TAF) for Zadar Airport

2022/12/03 12:26 (retrieved 3 hours ago)

TAF LDZD 031125Z 0312/0412 12014KT 8000 BKN030 TX14/0411Z TN10/0317Z TEMPO 0312/0412 13008KT 4000 RA PROB30 TEMPO 0312/0318 15015G25KT 3000 TSRA SCT020CB BKN025 PROB40 TEMPO 0318/0409 12020G30KT PROB30 TEMPO 0409/0412 15008KT TSRA FEW020CB BKN030